createdAt,value
2019-05-28T00:00:21.331Z,13.93
2019-05-28T00:02:51.728Z,13.92
2019-05-28T00:05:22.106Z,13.94
2019-05-28T00:07:52.448Z,13.93
2019-05-28T00:10:22.697Z,13.95
2019-05-28T00:12:53.040Z,13.93
2019-05-28T00:15:23.706Z,13.97
2019-05-28T00:17:53.972Z,13.94
2019-05-28T00:20:24.314Z,13.94
2019-05-28T00:22:54.594Z,13.92
2019-05-28T00:25:28.583Z,13.84
2019-05-28T00:27:56.867Z,13.86
2019-05-28T00:30:27.146Z,13.89
2019-05-28T00:32:57.487Z,13.92
2019-05-28T00:35:27.874Z,13.90
2019-05-28T00:37:58.147Z,13.91
2019-05-28T00:40:28.433Z,13.87
2019-05-28T00:42:58.693Z,13.86
2019-05-28T00:45:28.974Z,13.86
2019-05-28T00:47:59.386Z,13.89
2019-05-28T00:50:29.660Z,13.85
2019-05-28T00:52:59.940Z,13.83
2019-05-28T00:55:30.189Z,13.84
2019-05-28T00:58:01.314Z,13.86
2019-05-28T01:00:50.224Z,13.87
2019-05-28T01:03:20.699Z,13.91
2019-05-28T01:05:51.021Z,13.87
2019-05-28T01:08:21.370Z,13.89
2019-05-28T01:10:51.708Z,13.83
2019-05-28T01:13:22.050Z,13.77
2019-05-28T01:15:52.350Z,13.74
2019-05-28T01:18:22.701Z,13.70
2019-05-28T01:20:53.039Z,13.75
2019-05-28T01:23:23.384Z,13.72
2019-05-28T01:25:53.668Z,13.74
2019-05-28T01:28:23.910Z,13.69
2019-05-28T01:30:59.575Z,13.74
2019-05-28T01:33:26.162Z,13.75
2019-05-28T01:35:56.428Z,13.73
2019-05-28T01:38:26.771Z,13.71
2019-05-28T01:40:57.082Z,13.75
2019-05-28T01:43:27.337Z,13.79
2019-05-28T01:45:57.677Z,13.79
2019-05-28T01:48:28.019Z,13.78
2019-05-28T01:50:58.374Z,13.75
2019-05-28T01:53:28.640Z,13.78
2019-05-28T01:55:58.904Z,13.79
2019-05-28T01:58:29.332Z,13.76
2019-05-28T02:01:12.034Z,13.74
2019-05-28T02:03:31.652Z,13.71
2019-05-28T02:06:01.981Z,13.71
2019-05-28T02:08:32.427Z,13.74
2019-05-28T02:11:02.695Z,13.74
2019-05-28T02:13:32.964Z,13.76
2019-05-28T02:16:03.240Z,13.71
2019-05-28T02:18:33.567Z,13.65
2019-05-28T02:21:04.100Z,13.65
2019-05-28T02:23:34.453Z,13.65
2019-05-28T02:26:05.064Z,13.65
2019-05-28T02:28:35.419Z,13.69
2019-05-28T02:31:05.789Z,13.67
2019-05-28T02:33:36.046Z,13.61
2019-05-28T02:36:06.382Z,13.58
2019-05-28T02:38:36.723Z,13.55
2019-05-28T02:41:07.185Z,13.55
2019-05-28T02:43:37.929Z,13.53
2019-05-28T02:46:08.240Z,13.53
2019-05-28T02:48:38.491Z,13.58
2019-05-28T02:51:08.833Z,13.52
2019-05-28T02:53:39.257Z,13.51
2019-05-28T02:56:09.921Z,13.53
2019-05-28T02:58:40.185Z,13.52
2019-05-28T03:01:10.507Z,13.53
2019-05-28T03:03:42.590Z,13.50
2019-05-28T03:06:14.742Z,13.55
2019-05-28T03:08:48.619Z,13.55
2019-05-28T03:11:18.915Z,13.55
2019-05-28T03:13:49.217Z,13.54
2019-05-28T03:16:23.887Z,13.53
2019-05-28T03:18:56.521Z,13.51
2019-05-28T03:21:28.952Z,13.56
2019-05-28T03:24:01.714Z,13.61
2019-05-28T03:26:32.037Z,13.54
2019-05-28T03:29:02.310Z,13.50
2019-05-28T03:31:32.652Z,13.49
2019-05-28T03:34:03.714Z,13.50
2019-05-28T03:36:35.508Z,13.51
2019-05-28T03:39:08.049Z,13.52
2019-05-28T03:41:38.387Z,13.51
2019-05-28T03:44:08.658Z,13.45
2019-05-28T03:46:38.937Z,13.51
2019-05-28T03:49:09.214Z,13.52
2019-05-28T03:51:39.561Z,13.55
2019-05-28T03:54:09.895Z,13.58
2019-05-28T03:56:40.100Z,13.58
2019-05-28T03:59:10.358Z,13.58
2019-05-28T04:01:41.133Z,13.55
2019-05-28T04:04:11.526Z,13.60
2019-05-28T04:06:41.796Z,13.60
2019-05-28T04:09:12.132Z,13.59
2019-05-28T04:11:45.041Z,13.59
2019-05-28T04:14:14.688Z,13.63
2019-05-28T04:16:44.982Z,13.64
2019-05-28T04:19:15.315Z,13.69
2019-05-28T04:21:45.601Z,13.70
2019-05-28T04:24:15.942Z,13.63
2019-05-28T04:26:46.167Z,13.63
2019-05-28T04:29:16.450Z,13.62
2019-05-28T04:31:46.791Z,13.67
2019-05-28T04:34:17.055Z,13.68
2019-05-28T04:36:47.331Z,13.67
2019-05-28T04:39:17.656Z,13.70
2019-05-28T04:41:47.995Z,13.68
2019-05-28T04:44:18.328Z,13.69
2019-05-28T04:46:48.679Z,13.74
2019-05-28T04:49:18.933Z,13.70
2019-05-28T04:51:49.191Z,13.75
2019-05-28T04:54:19.533Z,13.74
2019-05-28T04:56:49.893Z,13.69
2019-05-28T04:59:20.254Z,13.63
2019-05-28T05:01:50.526Z,13.55
2019-05-28T05:04:21.012Z,13.49
2019-05-28T05:06:51.303Z,13.45
2019-05-28T05:09:21.567Z,13.41
2019-05-28T05:11:52.239Z,13.47
2019-05-28T05:14:24.410Z,13.54
2019-05-28T05:16:54.798Z,13.57
2019-05-28T05:19:25.468Z,13.59
2019-05-28T05:21:55.813Z,13.60
2019-05-28T05:24:26.281Z,13.62
2019-05-28T05:26:56.842Z,13.61
2019-05-28T05:29:27.293Z,13.67
2019-05-28T05:31:57.648Z,13.68
2019-05-28T05:34:27.992Z,13.70
2019-05-28T05:36:58.465Z,13.71
2019-05-28T05:39:28.851Z,13.72
2019-05-28T05:41:59.325Z,13.74
2019-05-28T05:44:30.126Z,13.76
2019-05-28T05:47:00.471Z,13.81
2019-05-28T05:49:30.846Z,13.85
2019-05-28T05:52:01.171Z,13.90
2019-05-28T05:54:31.463Z,13.94
2019-05-28T05:57:01.760Z,14.04
2019-05-28T05:59:32.063Z,14.14
2019-05-28T06:02:02.372Z,14.19
2019-05-28T06:04:32.779Z,14.23
2019-05-28T06:07:03.108Z,14.22
2019-05-28T06:09:33.458Z,14.23
2019-05-28T06:12:03.816Z,14.29
2019-05-28T06:14:37.787Z,14.24
2019-05-28T06:17:06.266Z,14.32
2019-05-28T06:19:36.522Z,14.33
2019-05-28T06:22:06.878Z,14.40
2019-05-28T06:24:37.157Z,14.44
2019-05-28T06:27:07.524Z,14.41
2019-05-28T06:29:37.894Z,14.39
2019-05-28T06:32:08.170Z,14.43
2019-05-28T06:34:38.516Z,14.43
2019-05-28T06:37:08.808Z,14.33
2019-05-28T06:39:39.088Z,14.36
2019-05-28T06:42:09.313Z,14.34
2019-05-28T06:44:39.666Z,14.40
2019-05-28T06:47:10.021Z,14.40
2019-05-28T06:49:40.352Z,14.39
2019-05-28T06:52:10.650Z,14.36
2019-05-28T06:54:40.927Z,14.33
2019-05-28T06:57:22.263Z,14.39
2019-05-28T06:59:43.357Z,14.42
2019-05-28T07:02:13.605Z,14.47
2019-05-28T07:04:44.232Z,14.51
2019-05-28T07:07:14.521Z,14.56
2019-05-28T07:09:44.773Z,14.58
2019-05-28T07:12:18.042Z,14.67
2019-05-28T07:14:47.087Z,14.72
2019-05-28T07:17:17.431Z,14.80
2019-05-28T07:19:47.816Z,14.82
2019-05-28T07:22:18.055Z,14.82
2019-05-28T07:24:48.312Z,14.78
2019-05-28T07:27:18.573Z,14.75
2019-05-28T07:29:48.880Z,14.71
2019-05-28T07:32:19.208Z,14.65
2019-05-28T07:34:49.563Z,14.66
2019-05-28T07:37:19.828Z,14.62
2019-05-28T07:39:50.082Z,14.64
2019-05-28T07:42:32.159Z,14.66
2019-05-28T07:44:52.469Z,14.77
2019-05-28T07:47:22.824Z,14.80
2019-05-28T07:49:53.091Z,14.81
2019-05-28T07:52:23.455Z,14.84
2019-05-28T07:54:53.726Z,14.86
2019-05-28T07:57:23.992Z,14.87
2019-05-28T07:59:54.242Z,14.83
2019-05-28T08:02:24.573Z,14.84
2019-05-28T08:04:54.970Z,14.88
2019-05-28T08:07:25.401Z,14.99
2019-05-28T08:09:55.707Z,15.08
2019-05-28T08:12:25.964Z,15.15
2019-05-28T08:14:56.315Z,15.22
2019-05-28T08:17:26.565Z,15.35
2019-05-28T08:19:56.852Z,15.49
2019-05-28T08:22:41.183Z,15.68
2019-05-28T08:25:00.058Z,15.91
2019-05-28T08:27:30.362Z,16.16
2019-05-28T08:30:00.700Z,16.22
2019-05-28T08:32:31.251Z,16.35
2019-05-28T08:35:05.365Z,16.52
2019-05-28T08:37:33.660Z,16.48
2019-05-28T08:40:04.447Z,16.43
2019-05-28T08:42:34.772Z,16.32
2019-05-28T08:45:05.461Z,16.08
2019-05-28T08:47:35.725Z,15.99
2019-05-28T08:50:06.500Z,15.87
2019-05-28T08:52:36.813Z,15.83
2019-05-28T08:55:08.272Z,15.82
2019-05-28T08:57:39.105Z,15.80
2019-05-28T09:00:11.113Z,15.69
2019-05-28T09:02:41.449Z,15.69
2019-05-28T09:05:25.701Z,15.61
2019-05-28T09:07:43.855Z,15.54
2019-05-28T09:10:14.391Z,15.47
2019-05-28T09:12:44.635Z,15.42
2019-05-28T09:15:14.959Z,15.42
2019-05-28T09:17:45.298Z,15.46
2019-05-28T09:20:15.783Z,15.52
2019-05-28T09:22:45.998Z,15.43
2019-05-28T09:25:16.256Z,15.40
2019-05-28T09:27:46.532Z,15.40
2019-05-28T09:30:17.525Z,15.44
2019-05-28T09:32:47.855Z,15.44
2019-05-28T09:35:18.328Z,15.44
2019-05-28T09:37:48.663Z,15.46
2019-05-28T09:40:20.095Z,15.50
2019-05-28T09:42:50.463Z,15.54
2019-05-28T09:45:22.818Z,15.69
2019-05-28T09:47:55.179Z,15.75
2019-05-28T09:50:30.449Z,15.85
2019-05-28T09:52:57.136Z,15.93
2019-05-28T09:55:27.522Z,16.00
2019-05-28T09:57:57.847Z,16.10
2019-05-28T10:00:30.187Z,16.21
2019-05-28T10:03:00.542Z,16.27
2019-05-28T10:05:30.881Z,16.32
2019-05-28T10:08:01.296Z,16.30
2019-05-28T10:10:31.644Z,16.33
2019-05-28T10:13:01.936Z,16.40
2019-05-28T10:15:32.982Z,16.49
2019-05-28T10:18:03.631Z,16.54
2019-05-28T10:20:37.718Z,16.57
2019-05-28T10:23:06.124Z,16.45
2019-05-28T10:25:36.478Z,16.49
2019-05-28T10:28:06.859Z,16.36
2019-05-28T10:30:37.167Z,16.09
2019-05-28T10:33:07.477Z,15.93
2019-05-28T10:35:37.774Z,15.90
2019-05-28T10:38:14.542Z,15.97
2019-05-28T10:40:40.194Z,15.90
2019-05-28T10:43:10.554Z,15.73
2019-05-28T10:45:40.967Z,15.69
2019-05-28T10:48:11.389Z,15.76
2019-05-28T10:50:41.601Z,15.81
2019-05-28T10:53:11.921Z,15.90
2019-05-28T10:55:42.547Z,15.90
2019-05-28T10:58:12.837Z,16.01
2019-05-28T11:00:43.094Z,16.11
2019-05-28T11:03:13.367Z,15.81
2019-05-28T11:05:43.753Z,15.81
2019-05-28T11:08:14.016Z,15.81
2019-05-28T11:10:44.416Z,15.90
2019-05-28T11:13:14.759Z,15.93
2019-05-28T11:15:45.100Z,15.81
2019-05-28T11:18:15.475Z,15.79
2019-05-28T11:20:45.837Z,15.87
2019-05-28T11:23:17.154Z,15.90
2019-05-28T11:25:47.418Z,15.93
2019-05-28T11:28:17.764Z,15.96
2019-05-28T11:30:48.110Z,15.96
2019-05-28T11:33:18.395Z,16.06
2019-05-28T11:35:48.905Z,16.07
2019-05-28T11:38:19.237Z,16.07
2019-05-28T11:40:49.509Z,15.96
2019-05-28T11:43:19.862Z,15.81
2019-05-28T11:45:50.155Z,15.74
2019-05-28T11:48:20.497Z,15.88
2019-05-28T11:50:50.833Z,15.94
2019-05-28T11:53:21.174Z,16.04
2019-05-28T11:55:51.927Z,15.93
2019-05-28T11:58:22.274Z,15.95
2019-05-28T12:00:52.616Z,15.83
2019-05-28T12:03:22.890Z,15.76
2019-05-28T12:05:53.175Z,15.73
2019-05-28T12:08:23.447Z,15.78
2019-05-28T12:10:53.762Z,15.67
2019-05-28T12:13:24.143Z,15.57
2019-05-28T12:15:54.416Z,15.55
2019-05-28T12:18:24.770Z,15.60
2019-05-28T12:20:55.134Z,15.66
2019-05-28T12:23:25.814Z,15.65
2019-05-28T12:25:56.150Z,15.63
2019-05-28T12:28:37.586Z,15.68
2019-05-28T12:30:58.451Z,15.72
2019-05-28T12:33:28.773Z,15.78
2019-05-28T12:35:59.067Z,15.84
2019-05-28T12:38:29.403Z,15.93
2019-05-28T12:40:59.731Z,16.07
2019-05-28T12:43:30.095Z,16.34
2019-05-28T12:46:00.334Z,16.52
2019-05-28T12:48:30.704Z,16.56
2019-05-28T12:51:02.316Z,16.72
2019-05-28T12:53:49.186Z,16.84
2019-05-28T12:56:04.824Z,16.71
2019-05-28T12:58:42.584Z,16.61
2019-05-28T13:01:07.291Z,16.50
2019-05-28T13:03:37.589Z,16.27
2019-05-28T13:06:07.954Z,16.03
2019-05-28T13:08:38.297Z,15.94
2019-05-28T13:11:08.579Z,15.60
2019-05-28T13:13:38.965Z,15.34
2019-05-28T13:16:09.259Z,15.11
2019-05-28T13:18:39.597Z,14.92
2019-05-28T13:21:09.925Z,14.74
2019-05-28T13:23:40.294Z,14.63
2019-05-28T13:26:14.401Z,14.51
2019-05-28T13:28:42.715Z,14.40
2019-05-28T13:31:13.054Z,14.40
2019-05-28T13:33:43.411Z,14.53
2019-05-28T13:36:13.749Z,14.65
2019-05-28T13:38:44.166Z,14.85
2019-05-28T13:41:14.503Z,15.04
2019-05-28T13:43:44.871Z,15.18
2019-05-28T13:46:18.019Z,15.25
2019-05-28T13:48:48.382Z,15.19
2019-05-28T13:51:18.738Z,15.29
2019-05-28T13:53:49.027Z,15.39
2019-05-28T13:56:19.366Z,15.36
2019-05-28T13:58:49.661Z,15.41
2019-05-28T14:01:19.993Z,15.32
2019-05-28T14:03:50.343Z,15.31
2019-05-28T14:06:20.659Z,15.16
2019-05-28T14:08:51.009Z,14.98
2019-05-28T14:11:21.411Z,14.90
2019-05-28T14:13:51.675Z,14.70
2019-05-28T14:16:21.971Z,14.62
2019-05-28T14:18:52.259Z,14.61
2019-05-28T14:21:22.518Z,14.70
2019-05-28T14:23:53.003Z,14.56
2019-05-28T14:26:23.322Z,14.43
2019-05-28T14:28:54.010Z,14.51
2019-05-28T14:31:24.372Z,14.70
2019-05-28T14:33:54.706Z,14.81
2019-05-28T14:36:24.967Z,14.87
2019-05-28T14:39:03.020Z,15.06
2019-05-28T14:41:27.349Z,14.92
2019-05-28T14:43:57.708Z,14.91
2019-05-28T14:46:27.989Z,14.90
2019-05-28T14:48:58.327Z,15.03
2019-05-28T14:51:28.593Z,15.17
2019-05-28T14:53:58.881Z,15.19
2019-05-28T14:56:29.144Z,15.20
2019-05-28T14:58:59.496Z,15.22
2019-05-28T15:01:29.848Z,15.21
2019-05-28T15:04:00.198Z,15.17
2019-05-28T15:06:31.317Z,15.22
2019-05-28T15:09:17.084Z,15.21
2019-05-28T15:11:33.682Z,15.12
2019-05-28T15:14:04.035Z,15.05
2019-05-28T15:16:34.419Z,14.93
2019-05-28T15:19:04.890Z,14.76
2019-05-28T15:21:35.451Z,14.67
2019-05-28T15:24:05.798Z,14.52
2019-05-28T15:26:36.122Z,14.42
2019-05-28T15:29:06.452Z,14.33
2019-05-28T15:31:37.270Z,14.25
2019-05-28T15:34:07.717Z,14.16
2019-05-28T15:36:39.473Z,14.10
2019-05-28T15:39:10.175Z,14.03
2019-05-28T15:41:44.289Z,13.96
2019-05-28T15:44:14.858Z,13.84
2019-05-28T15:46:45.246Z,13.81
2019-05-28T15:49:15.793Z,13.87
2019-05-28T15:51:46.205Z,14.00
2019-05-28T15:54:16.825Z,14.13
2019-05-28T15:56:47.111Z,14.25
2019-05-28T15:59:17.419Z,14.26
2019-05-28T16:01:47.771Z,14.31
2019-05-28T16:04:18.123Z,14.29
2019-05-28T16:06:48.503Z,14.18
2019-05-28T16:09:18.825Z,14.13
2019-05-28T16:11:49.190Z,14.11
2019-05-28T16:14:19.736Z,14.06
2019-05-28T16:16:50.025Z,14.04
2019-05-28T16:19:20.416Z,14.03
2019-05-28T16:21:50.695Z,14.07
2019-05-28T16:24:21.207Z,14.06
2019-05-28T16:26:51.584Z,14.09
2019-05-28T16:29:22.032Z,14.10
2019-05-28T16:31:52.520Z,14.07
2019-05-28T16:34:23.017Z,14.02
2019-05-28T16:36:54.498Z,13.99
2019-05-28T16:39:24.871Z,13.95
2019-05-28T16:41:55.381Z,13.93
2019-05-28T16:44:25.867Z,13.86
2019-05-28T16:47:14.852Z,13.85
2019-05-28T16:49:28.401Z,13.90
2019-05-28T16:51:58.822Z,13.79
2019-05-28T16:54:29.316Z,13.70
2019-05-28T16:56:59.809Z,13.68
2019-05-28T16:59:30.315Z,13.72
2019-05-28T17:02:00.868Z,13.76
2019-05-28T17:04:31.367Z,13.81
2019-05-28T17:07:01.798Z,13.87
2019-05-28T17:09:32.176Z,13.88
2019-05-28T17:12:02.619Z,13.89
2019-05-28T17:14:33.033Z,13.93
2019-05-28T17:17:03.458Z,13.83
2019-05-28T17:19:34.006Z,13.87
2019-05-28T17:22:04.490Z,13.91
2019-05-28T17:24:35.002Z,13.94
2019-05-28T17:27:05.795Z,13.87
2019-05-28T17:29:36.282Z,13.79
2019-05-28T17:32:06.590Z,13.74
2019-05-28T17:34:37.108Z,13.74
2019-05-28T17:37:07.578Z,13.64
2019-05-28T17:39:37.974Z,13.63
2019-05-28T17:42:08.397Z,13.68
2019-05-28T17:44:38.749Z,13.71
2019-05-28T17:47:09.454Z,13.68
2019-05-28T17:49:39.931Z,13.62
2019-05-28T17:52:10.582Z,13.58
2019-05-28T17:54:41.017Z,13.56
2019-05-28T17:57:11.446Z,13.58
2019-05-28T17:59:41.887Z,13.64
2019-05-28T18:02:12.247Z,13.69
2019-05-28T18:04:42.691Z,13.61
2019-05-28T18:07:13.168Z,13.56
2019-05-28T18:09:44.168Z,13.56
2019-05-28T18:12:15.011Z,13.46
2019-05-28T18:14:45.511Z,13.44
2019-05-28T18:17:16.296Z,13.37
2019-05-28T18:19:46.994Z,13.34
2019-05-28T18:22:17.420Z,13.30
2019-05-28T18:24:48.047Z,13.30
2019-05-28T18:27:18.487Z,13.33
2019-05-28T18:29:49.036Z,13.24
2019-05-28T18:32:19.907Z,13.25
2019-05-28T18:34:50.437Z,13.24
2019-05-28T18:37:21.105Z,13.22
2019-05-28T18:39:51.763Z,13.22
2019-05-28T18:42:22.435Z,13.30
2019-05-28T18:44:52.950Z,13.22
2019-05-28T18:47:23.493Z,13.14
2019-05-28T18:49:57.070Z,13.06
2019-05-28T18:52:27.592Z,13.01
2019-05-28T18:54:58.158Z,12.97
2019-05-28T18:57:28.616Z,12.76
2019-05-28T18:59:59.608Z,12.65
2019-05-28T19:02:30.047Z,12.58
2019-05-28T19:05:00.528Z,12.62
2019-05-28T19:07:31.088Z,12.60
2019-05-28T19:10:01.603Z,12.65
2019-05-28T19:12:32.125Z,12.61
2019-05-28T19:15:02.855Z,12.57
2019-05-28T19:17:33.404Z,12.53
2019-05-28T19:20:04.418Z,12.48
2019-05-28T19:22:34.859Z,12.48
2019-05-28T19:25:06.130Z,12.44
2019-05-28T19:27:37.012Z,12.41
2019-05-28T19:30:08.617Z,12.35
2019-05-28T19:32:39.320Z,12.36
2019-05-28T19:35:10.644Z,12.32
2019-05-28T19:37:41.735Z,12.30
2019-05-28T19:40:12.700Z,12.28
2019-05-28T19:42:43.046Z,12.32
2019-05-28T19:45:13.637Z,12.39
2019-05-28T19:47:44.187Z,12.32
2019-05-28T19:50:14.919Z,12.34
2019-05-28T19:52:45.585Z,12.31
2019-05-28T19:55:16.785Z,12.31
2019-05-28T19:57:47.097Z,12.33
2019-05-28T20:00:17.998Z,12.31
2019-05-28T20:02:48.459Z,12.30
2019-05-28T20:05:19.351Z,12.30
2019-05-28T20:07:50.050Z,12.27
2019-05-28T20:10:21.390Z,12.16
2019-05-28T20:12:51.805Z,12.08
2019-05-28T20:15:24.062Z,12.00
2019-05-28T20:17:54.688Z,11.93
2019-05-28T20:20:25.195Z,11.91
2019-05-28T20:22:56.172Z,11.90
2019-05-28T20:25:26.629Z,11.84
2019-05-28T20:27:57.083Z,11.81
2019-05-28T20:30:27.832Z,11.74
2019-05-28T20:32:59.085Z,11.69
2019-05-28T20:35:31.135Z,11.60
2019-05-28T20:38:05.788Z,11.52
2019-05-28T20:40:33.691Z,11.52
2019-05-28T20:43:04.204Z,11.49
2019-05-28T20:45:34.584Z,11.48
2019-05-28T20:48:05.046Z,11.42
2019-05-28T20:50:35.508Z,11.42
2019-05-28T20:53:05.802Z,11.41
2019-05-28T20:55:36.257Z,11.42
2019-05-28T20:58:06.677Z,11.40
2019-05-28T21:00:37.096Z,11.34
2019-05-28T21:03:07.545Z,11.29
2019-05-28T21:05:37.934Z,11.32
2019-05-28T21:08:08.405Z,11.30
2019-05-28T21:10:38.859Z,11.29
2019-05-28T21:13:09.181Z,11.29
2019-05-28T21:15:39.628Z,11.31
2019-05-28T21:18:10.082Z,11.24
2019-05-28T21:20:40.426Z,11.29
2019-05-28T21:23:10.863Z,11.31
2019-05-28T21:25:41.231Z,11.30
2019-05-28T21:28:11.653Z,11.31
2019-05-28T21:30:42.127Z,11.32
2019-05-28T21:33:12.613Z,11.34
2019-05-28T21:35:43.036Z,11.35
2019-05-28T21:38:13.360Z,11.33
2019-05-28T21:40:43.768Z,11.33
2019-05-28T21:43:14.250Z,11.34
2019-05-28T21:45:44.642Z,11.34
2019-05-28T21:48:15.017Z,11.34
2019-05-28T21:50:45.394Z,11.35
2019-05-28T21:53:15.768Z,11.35
2019-05-28T21:55:46.453Z,11.30
2019-05-28T21:58:16.759Z,11.28
2019-05-28T22:01:00.046Z,11.24
2019-05-28T22:03:30.528Z,11.21
2019-05-28T22:06:01.459Z,11.21
2019-05-28T22:08:31.904Z,11.21
2019-05-28T22:11:02.265Z,11.23
2019-05-28T22:13:32.723Z,11.18
2019-05-28T22:16:04.317Z,11.15
2019-05-28T22:18:34.976Z,11.13
2019-05-28T22:21:05.466Z,11.14
2019-05-28T22:23:35.974Z,11.17
2019-05-28T22:26:06.396Z,11.20
2019-05-28T22:28:36.854Z,11.20
2019-05-28T22:31:08.116Z,11.16
2019-05-28T22:33:38.623Z,11.15
2019-05-28T22:36:09.111Z,11.12
2019-05-28T22:38:39.627Z,11.10
2019-05-28T22:41:10.004Z,11.09
2019-05-28T22:43:40.393Z,11.09
2019-05-28T22:46:10.825Z,11.05
2019-05-28T22:48:41.235Z,11.03
2019-05-28T22:51:11.632Z,10.99
2019-05-28T22:53:42.027Z,10.99
2019-05-28T22:56:12.535Z,10.96
2019-05-28T22:58:42.793Z,10.93
2019-05-28T23:01:13.266Z,10.94
2019-05-28T23:03:43.776Z,10.92
2019-05-28T23:06:14.257Z,10.92
2019-05-28T23:08:44.723Z,10.92
2019-05-28T23:11:15.134Z,10.93
2019-05-28T23:13:47.060Z,10.89
2019-05-28T23:16:17.754Z,10.85
2019-05-28T23:18:48.166Z,10.85
2019-05-28T23:21:18.590Z,10.87
2019-05-28T23:23:48.961Z,10.86
2019-05-28T23:26:19.417Z,10.85
2019-05-28T23:28:49.746Z,10.88
2019-05-28T23:31:20.146Z,10.90
2019-05-28T23:33:50.567Z,10.91
2019-05-28T23:36:21.044Z,10.91
2019-05-28T23:38:51.446Z,10.92
2019-05-28T23:41:21.896Z,10.91
2019-05-28T23:44:01.542Z,10.91
2019-05-28T23:46:24.543Z,10.92
2019-05-28T23:48:55.755Z,10.91
2019-05-28T23:51:26.165Z,10.92
2019-05-28T23:53:56.639Z,10.88
2019-05-28T23:56:27.034Z,10.87
2019-05-28T23:58:57.467Z,10.86
